sensor_id;sensor_type;location;lat;lon;timestamp;pressure;altitude;pressure_sealevel;temperature;humidity
47592;BME280;33317;33.356;-117.184;2022-07-17T00:00:47;98844.72;;;29.37;24.40
47592;BME280;33317;33.356;-117.184;2022-07-17T00:03:17;98841.57;;;29.60;24.60
47592;BME280;33317;33.356;-117.184;2022-07-17T00:05:46;98841.42;;;29.92;24.64
47592;BME280;33317;33.356;-117.184;2022-07-17T00:08:15;98837.65;;;29.69;24.30
47592;BME280;33317;33.356;-117.184;2022-07-17T00:10:44;98834.05;;;28.97;24.60
47592;BME280;33317;33.356;-117.184;2022-07-17T00:13:13;98829.30;;;28.44;25.33
47592;BME280;33317;33.356;-117.184;2022-07-17T00:15:41;98837.21;;;29.17;25.10
47592;BME280;33317;33.356;-117.184;2022-07-17T00:18:10;98839.02;;;29.31;24.24
47592;BME280;33317;33.356;-117.184;2022-07-17T00:20:38;98834.97;;;29.96;23.97
47592;BME280;33317;33.356;-117.184;2022-07-17T00:23:06;98829.98;;;29.98;23.75
47592;BME280;33317;33.356;-117.184;2022-07-17T00:25:35;98830.44;;;29.14;24.62
47592;BME280;33317;33.356;-117.184;2022-07-17T00:28:04;98833.62;;;28.25;25.84
47592;BME280;33317;33.356;-117.184;2022-07-17T00:30:33;98841.80;;;28.55;25.33
47592;BME280;33317;33.356;-117.184;2022-07-17T00:33:01;98846.89;;;28.83;25.34
47592;BME280;33317;33.356;-117.184;2022-07-17T00:35:30;98847.97;;;29.18;25.23
47592;BME280;33317;33.356;-117.184;2022-07-17T00:37:58;98847.87;;;29.70;24.25
47592;BME280;33317;33.356;-117.184;2022-07-17T00:40:27;98857.84;;;29.70;24.52
47592;BME280;33317;33.356;-117.184;2022-07-17T00:42:55;98864.60;;;28.81;25.34
47592;BME280;33317;33.356;-117.184;2022-07-17T00:45:24;98864.22;;;28.33;26.00
47592;BME280;33317;33.356;-117.184;2022-07-17T00:47:56;98863.98;;;28.19;26.62
47592;BME280;33317;33.356;-117.184;2022-07-17T00:50:28;98871.71;;;28.92;25.04
47592;BME280;33317;33.356;-117.184;2022-07-17T00:52:56;98871.49;;;29.33;24.47
47592;BME280;33317;33.356;-117.184;2022-07-17T00:55:26;98877.97;;;29.48;24.09
47592;BME280;33317;33.356;-117.184;2022-07-17T00:57:56;98881.35;;;29.65;24.00
47592;BME280;33317;33.356;-117.184;2022-07-17T01:00:25;98879.36;;;29.81;24.14
47592;BME280;33317;33.356;-117.184;2022-07-17T01:02:55;98876.67;;;29.53;24.27
47592;BME280;33317;33.356;-117.184;2022-07-17T01:05:29;98873.15;;;29.44;24.10
47592;BME280;33317;33.356;-117.184;2022-07-17T01:07:57;98876.26;;;29.41;24.69
47592;BME280;33317;33.356;-117.184;2022-07-17T01:10:26;98879.04;;;29.38;24.94
47592;BME280;33317;33.356;-117.184;2022-07-17T01:12:54;98877.95;;;29.79;25.29
47592;BME280;33317;33.356;-117.184;2022-07-17T01:15:23;98877.09;;;29.70;25.26
47592;BME280;33317;33.356;-117.184;2022-07-17T01:17:52;98878.53;;;29.26;25.15
47592;BME280;33317;33.356;-117.184;2022-07-17T01:20:21;98881.04;;;28.42;25.68
47592;BME280;33317;33.356;-117.184;2022-07-17T01:22:51;98880.02;;;28.88;25.02
47592;BME280;33317;33.356;-117.184;2022-07-17T01:25:21;98884.30;;;28.92;25.22
47592;BME280;33317;33.356;-117.184;2022-07-17T01:27:51;98885.06;;;29.52;24.85
47592;BME280;33317;33.356;-117.184;2022-07-17T01:30:20;98879.21;;;29.49;24.69
47592;BME280;33317;33.356;-117.184;2022-07-17T01:32:49;98874.11;;;30.03;24.51
47592;BME280;33317;33.356;-117.184;2022-07-17T01:35:17;98877.26;;;29.53;24.89
47592;BME280;33317;33.356;-117.184;2022-07-17T01:37:45;98882.35;;;29.63;24.55
47592;BME280;33317;33.356;-117.184;2022-07-17T01:40:16;98886.38;;;29.17;24.79
47592;BME280;33317;33.356;-117.184;2022-07-17T01:42:46;98887.55;;;28.84;25.27
47592;BME280;33317;33.356;-117.184;2022-07-17T01:45:17;98892.24;;;29.43;24.60
47592;BME280;33317;33.356;-117.184;2022-07-17T01:47:46;98892.93;;;29.80;24.40
47592;BME280;33317;33.356;-117.184;2022-07-17T01:50:16;98890.73;;;29.89;24.29
47592;BME280;33317;33.356;-117.184;2022-07-17T01:52:45;98888.68;;;29.90;24.40
47592;BME280;33317;33.356;-117.184;2022-07-17T01:55:15;98893.94;;;29.79;24.08
47592;BME280;33317;33.356;-117.184;2022-07-17T01:57:44;98898.66;;;29.30;24.47
47592;BME280;33317;33.356;-117.184;2022-07-17T02:00:15;98903.06;;;29.10;24.76
47592;BME280;33317;33.356;-117.184;2022-07-17T02:02:44;98905.15;;;29.20;24.56
47592;BME280;33317;33.356;-117.184;2022-07-17T02:05:13;98903.02;;;29.56;24.00
47592;BME280;33317;33.356;-117.184;2022-07-17T02:07:43;98902.64;;;29.79;23.96
47592;BME280;33317;33.356;-117.184;2022-07-17T02:10:14;98904.33;;;30.24;24.38
47592;BME280;33317;33.356;-117.184;2022-07-17T02:12:43;98905.95;;;29.89;24.20
47592;BME280;33317;33.356;-117.184;2022-07-17T02:15:13;98902.94;;;29.29;24.28
47592;BME280;33317;33.356;-117.184;2022-07-17T02:17:44;98900.84;;;29.19;24.25
47592;BME280;33317;33.356;-117.184;2022-07-17T02:20:12;98904.13;;;28.45;25.42
47592;BME280;33317;33.356;-117.184;2022-07-17T02:22:41;98907.73;;;28.04;26.01
47592;BME280;33317;33.356;-117.184;2022-07-17T02:25:10;98909.80;;;28.28;25.33
47592;BME280;33317;33.356;-117.184;2022-07-17T02:27:40;98913.63;;;28.50;25.11
47592;BME280;33317;33.356;-117.184;2022-07-17T02:30:12;98910.49;;;28.71;25.15
47592;BME280;33317;33.356;-117.184;2022-07-17T02:32:41;98909.12;;;28.30;25.46
47592;BME280;33317;33.356;-117.184;2022-07-17T02:35:13;98915.77;;;28.44;24.99
47592;BME280;33317;33.356;-117.184;2022-07-17T02:37:43;98915.34;;;28.74;24.77
47592;BME280;33317;33.356;-117.184;2022-07-17T02:40:14;98923.69;;;29.50;24.61
47592;BME280;33317;33.356;-117.184;2022-07-17T02:42:43;98921.78;;;29.58;24.92
47592;BME280;33317;33.356;-117.184;2022-07-17T02:45:14;98916.18;;;29.66;24.99
47592;BME280;33317;33.356;-117.184;2022-07-17T02:47:44;98913.79;;;29.63;24.20
47592;BME280;33317;33.356;-117.184;2022-07-17T02:50:18;98911.45;;;28.90;24.72
47592;BME280;33317;33.356;-117.184;2022-07-17T02:52:48;98905.31;;;29.29;25.00
47592;BME280;33317;33.356;-117.184;2022-07-17T02:55:18;98907.67;;;29.29;24.67
47592;BME280;33317;33.356;-117.184;2022-07-17T02:57:47;98901.65;;;29.64;24.94
47592;BME280;33317;33.356;-117.184;2022-07-17T03:00:19;98891.15;;;29.34;25.09
47592;BME280;33317;33.356;-117.184;2022-07-17T03:02:48;98884.86;;;29.52;25.04
47592;BME280;33317;33.356;-117.184;2022-07-17T03:05:18;98884.87;;;29.79;24.64
47592;BME280;33317;33.356;-117.184;2022-07-17T03:07:48;98889.56;;;29.32;24.19
47592;BME280;33317;33.356;-117.184;2022-07-17T03:10:16;98891.88;;;29.33;24.35
47592;BME280;33317;33.356;-117.184;2022-07-17T03:12:45;98889.26;;;28.83;24.62
47592;BME280;33317;33.356;-117.184;2022-07-17T03:15:14;98887.42;;;29.08;24.27
47592;BME280;33317;33.356;-117.184;2022-07-17T03:17:47;98885.88;;;29.36;23.83
47592;BME280;33317;33.356;-117.184;2022-07-17T03:20:23;98886.23;;;29.36;23.63
47592;BME280;33317;33.356;-117.184;2022-07-17T03:22:52;98888.93;;;29.52;23.50
47592;BME280;33317;33.356;-117.184;2022-07-17T03:25:23;98890.78;;;29.70;23.51
47592;BME280;33317;33.356;-117.184;2022-07-17T03:27:54;98889.31;;;29.37;23.91
47592;BME280;33317;33.356;-117.184;2022-07-17T03:30:25;98885.98;;;29.32;23.81
47592;BME280;33317;33.356;-117.184;2022-07-17T03:32:56;98883.13;;;29.38;24.18
47592;BME280;33317;33.356;-117.184;2022-07-17T03:35:26;98886.53;;;29.69;24.06
47592;BME280;33317;33.356;-117.184;2022-07-17T03:37:55;98891.31;;;29.56;23.94
47592;BME280;33317;33.356;-117.184;2022-07-17T03:40:26;98893.60;;;29.32;24.05
47592;BME280;33317;33.356;-117.184;2022-07-17T03:42:55;98894.19;;;29.26;23.66
47592;BME280;33317;33.356;-117.184;2022-07-17T03:45:25;98894.10;;;29.49;23.92
47592;BME280;33317;33.356;-117.184;2022-07-17T03:47:54;98896.49;;;29.44;23.61
47592;BME280;33317;33.356;-117.184;2022-07-17T03:50:25;98895.35;;;29.42;23.71
47592;BME280;33317;33.356;-117.184;2022-07-17T03:52:59;98893.20;;;29.60;23.92
47592;BME280;33317;33.356;-117.184;2022-07-17T03:55:34;98893.24;;;29.52;24.05
47592;BME280;33317;33.356;-117.184;2022-07-17T03:58:08;98894.87;;;29.88;23.89
47592;BME280;33317;33.356;-117.184;2022-07-17T04:00:40;98900.70;;;29.65;23.92
47592;BME280;33317;33.356;-117.184;2022-07-17T04:03:10;98894.83;;;29.70;23.96
47592;BME280;33317;33.356;-117.184;2022-07-17T04:05:41;98893.82;;;28.93;23.94
47592;BME280;33317;33.356;-117.184;2022-07-17T04:08:11;98889.34;;;28.73;24.30
47592;BME280;33317;33.356;-117.184;2022-07-17T04:10:40;98896.32;;;29.05;24.21
47592;BME280;33317;33.356;-117.184;2022-07-17T04:13:10;98897.23;;;28.67;24.81
47592;BME280;33317;33.356;-117.184;2022-07-17T04:15:39;98898.15;;;29.21;24.51
47592;BME280;33317;33.356;-117.184;2022-07-17T04:18:13;98895.75;;;29.42;24.44
47592;BME280;33317;33.356;-117.184;2022-07-17T04:20:48;98895.32;;;29.55;24.24
47592;BME280;33317;33.356;-117.184;2022-07-17T04:23:23;98893.79;;;29.39;24.15
47592;BME280;33317;33.356;-117.184;2022-07-17T04:25:54;98894.86;;;29.75;23.72
47592;BME280;33317;33.356;-117.184;2022-07-17T04:28:33;98898.82;;;29.46;23.50
47592;BME280;33317;33.356;-117.184;2022-07-17T04:31:06;98902.51;;;29.53;23.69
47592;BME280;33317;33.356;-117.184;2022-07-17T04:33:35;98901.01;;;29.51;23.42
47592;BME280;33317;33.356;-117.184;2022-07-17T04:36:05;98902.93;;;29.28;24.02
47592;BME280;33317;33.356;-117.184;2022-07-17T04:38:33;98899.05;;;29.36;24.29
47592;BME280;33317;33.356;-117.184;2022-07-17T04:41:02;98901.01;;;29.27;24.52
47592;BME280;33317;33.356;-117.184;2022-07-17T04:43:31;98900.57;;;29.21;24.73
47592;BME280;33317;33.356;-117.184;2022-07-17T04:46:11;98901.96;;;28.70;25.56
47592;BME280;33317;33.356;-117.184;2022-07-17T04:48:42;98906.21;;;29.12;24.81
47592;BME280;33317;33.356;-117.184;2022-07-17T04:51:10;98901.95;;;28.73;24.61
47592;BME280;33317;33.356;-117.184;2022-07-17T04:53:40;98895.19;;;29.00;24.21
47592;BME280;33317;33.356;-117.184;2022-07-17T04:56:16;98893.56;;;28.71;24.53
47592;BME280;33317;33.356;-117.184;2022-07-17T04:58:45;98892.04;;;28.61;24.62
47592;BME280;33317;33.356;-117.184;2022-07-17T05:01:13;98892.39;;;29.02;24.47
47592;BME280;33317;33.356;-117.184;2022-07-17T05:03:47;98891.48;;;28.68;25.02
47592;BME280;33317;33.356;-117.184;2022-07-17T05:06:17;98892.10;;;28.66;25.07
47592;BME280;33317;33.356;-117.184;2022-07-17T05:08:45;98891.25;;;28.71;25.11
47592;BME280;33317;33.356;-117.184;2022-07-17T05:11:14;98890.65;;;29.12;24.82
47592;BME280;33317;33.356;-117.184;2022-07-17T05:13:43;98892.28;;;28.92;24.87
47592;BME280;33317;33.356;-117.184;2022-07-17T05:16:11;98898.34;;;29.15;24.73
47592;BME280;33317;33.356;-117.184;2022-07-17T05:18:40;98904.24;;;29.28;24.50
47592;BME280;33317;33.356;-117.184;2022-07-17T05:21:09;98901.76;;;29.63;24.53
47592;BME280;33317;33.356;-117.184;2022-07-17T05:23:37;98894.35;;;29.42;24.49
47592;BME280;33317;33.356;-117.184;2022-07-17T05:26:10;98895.31;;;29.47;24.51
47592;BME280;33317;33.356;-117.184;2022-07-17T05:28:39;98899.10;;;29.49;24.65
47592;BME280;33317;33.356;-117.184;2022-07-17T05:31:07;98896.53;;;29.72;24.57
47592;BME280;33317;33.356;-117.184;2022-07-17T05:33:35;98891.37;;;29.74;24.63
47592;BME280;33317;33.356;-117.184;2022-07-17T05:36:06;98882.95;;;29.48;24.63
47592;BME280;33317;33.356;-117.184;2022-07-17T05:38:35;98877.18;;;29.77;24.62
47592;BME280;33317;33.356;-117.184;2022-07-17T05:41:04;98878.68;;;29.78;24.67
47592;BME280;33317;33.356;-117.184;2022-07-17T05:43:33;98880.10;;;29.49;24.84
47592;BME280;33317;33.356;-117.184;2022-07-17T05:46:01;98881.59;;;29.76;24.81
47592;BME280;33317;33.356;-117.184;2022-07-17T05:48:31;98886.72;;;29.51;24.82
47592;BME280;33317;33.356;-117.184;2022-07-17T05:51:00;98889.99;;;29.78;24.94
47592;BME280;33317;33.356;-117.184;2022-07-17T05:53:29;98891.05;;;29.76;24.90
47592;BME280;33317;33.356;-117.184;2022-07-17T05:55:59;98883.94;;;29.77;24.92
47592;BME280;33317;33.356;-117.184;2022-07-17T05:58:28;98880.30;;;29.78;25.04
47592;BME280;33317;33.356;-117.184;2022-07-17T06:00:57;98878.53;;;29.79;25.06
47592;BME280;33317;33.356;-117.184;2022-07-17T06:03:25;98877.76;;;29.79;25.10
47592;BME280;33317;33.356;-117.184;2022-07-17T06:05:54;98873.39;;;29.71;25.36
47592;BME280;33317;33.356;-117.184;2022-07-17T06:08:22;98871.41;;;29.70;25.35
47592;BME280;33317;33.356;-117.184;2022-07-17T06:10:50;98867.24;;;29.68;25.36
47592;BME280;33317;33.356;-117.184;2022-07-17T06:13:21;98864.58;;;29.69;25.21
47592;BME280;33317;33.356;-117.184;2022-07-17T06:15:50;98861.74;;;29.45;25.16
47592;BME280;33317;33.356;-117.184;2022-07-17T06:18:18;98860.57;;;29.70;25.28
47592;BME280;33317;33.356;-117.184;2022-07-17T06:20:46;98855.96;;;29.42;25.30
47592;BME280;33317;33.356;-117.184;2022-07-17T06:23:15;98851.43;;;29.40;25.38
47592;BME280;33317;33.356;-117.184;2022-07-17T06:25:48;98850.06;;;29.36;25.50
47592;BME280;33317;33.356;-117.184;2022-07-17T06:28:17;98848.67;;;29.63;25.45
47592;BME280;33317;33.356;-117.184;2022-07-17T06:30:45;98846.59;;;29.33;25.51
47592;BME280;33317;33.356;-117.184;2022-07-17T06:33:14;98841.76;;;29.55;25.54
47592;BME280;33317;33.356;-117.184;2022-07-17T06:35:42;98834.57;;;29.52;25.62
47592;BME280;33317;33.356;-117.184;2022-07-17T06:38:11;98833.76;;;29.24;25.67
47592;BME280;33317;33.356;-117.184;2022-07-17T06:40:39;98834.46;;;29.46;25.67
47592;BME280;33317;33.356;-117.184;2022-07-17T06:43:07;98831.88;;;29.43;25.81
47592;BME280;33317;33.356;-117.184;2022-07-17T06:45:37;98827.87;;;29.41;25.81
47592;BME280;33317;33.356;-117.184;2022-07-17T06:48:07;98822.75;;;29.36;25.84
47592;BME280;33317;33.356;-117.184;2022-07-17T06:50:36;98820.44;;;29.32;25.90
47592;BME280;33317;33.356;-117.184;2022-07-17T06:53:04;98810.38;;;29.30;25.88
47592;BME280;33317;33.356;-117.184;2022-07-17T06:55:33;98805.97;;;29.31;25.93
47592;BME280;33317;33.356;-117.184;2022-07-17T06:58:01;98796.73;;;29.04;25.97
47592;BME280;33317;33.356;-117.184;2022-07-17T07:00:30;98787.43;;;29.35;25.82
47592;BME280;33317;33.356;-117.184;2022-07-17T07:02:59;98783.71;;;29.47;25.85
47592;BME280;33317;33.356;-117.184;2022-07-17T07:05:27;98782.87;;;29.42;25.88
47592;BME280;33317;33.356;-117.184;2022-07-17T07:07:56;98783.19;;;29.08;25.99
47592;BME280;33317;33.356;-117.184;2022-07-17T07:10:24;98786.38;;;29.25;26.05
47592;BME280;33317;33.356;-117.184;2022-07-17T07:12:52;98785.10;;;29.21;26.14
47592;BME280;33317;33.356;-117.184;2022-07-17T07:15:21;98783.21;;;29.17;26.23
47592;BME280;33317;33.356;-117.184;2022-07-17T07:17:49;98782.78;;;29.38;26.26
47592;BME280;33317;33.356;-117.184;2022-07-17T07:20:19;98780.00;;;29.20;26.17
47592;BME280;33317;33.356;-117.184;2022-07-17T07:22:47;98783.18;;;29.48;26.11
47592;BME280;33317;33.356;-117.184;2022-07-17T07:25:15;98780.31;;;29.29;26.08
47592;BME280;33317;33.356;-117.184;2022-07-17T07:27:43;98779.78;;;29.30;26.05
47592;BME280;33317;33.356;-117.184;2022-07-17T07:30:12;98778.23;;;29.30;26.11
47592;BME280;33317;33.356;-117.184;2022-07-17T07:32:40;98779.80;;;29.30;26.13
47592;BME280;33317;33.356;-117.184;2022-07-17T07:35:09;98781.50;;;29.30;26.33
47592;BME280;33317;33.356;-117.184;2022-07-17T07:37:38;98780.27;;;29.28;26.25
47592;BME280;33317;33.356;-117.184;2022-07-17T07:40:08;98783.82;;;29.25;26.35
47592;BME280;33317;33.356;-117.184;2022-07-17T07:42:37;98780.89;;;29.01;26.43
47592;BME280;33317;33.356;-117.184;2022-07-17T07:45:07;98780.38;;;29.29;26.31
47592;BME280;33317;33.356;-117.184;2022-07-17T07:47:42;98777.28;;;29.27;26.30
47592;BME280;33317;33.356;-117.184;2022-07-17T07:50:11;98775.96;;;29.01;26.48
47592;BME280;33317;33.356;-117.184;2022-07-17T07:52:40;98776.32;;;29.27;26.47
47592;BME280;33317;33.356;-117.184;2022-07-17T07:55:10;98780.28;;;28.99;26.62
47592;BME280;33317;33.356;-117.184;2022-07-17T07:57:39;98776.68;;;29.24;26.54
47592;BME280;33317;33.356;-117.184;2022-07-17T08:00:10;98775.54;;;29.23;26.55
47592;BME280;33317;33.356;-117.184;2022-07-17T08:02:39;98774.96;;;29.22;26.55
47592;BME280;33317;33.356;-117.184;2022-07-17T08:05:07;98772.78;;;29.21;26.60
47592;BME280;33317;33.356;-117.184;2022-07-17T08:07:36;98768.14;;;29.19;26.59
47592;BME280;33317;33.356;-117.184;2022-07-17T08:10:05;98767.85;;;29.40;26.52
47592;BME280;33317;33.356;-117.184;2022-07-17T08:12:33;98764.41;;;29.14;26.54
47592;BME280;33317;33.356;-117.184;2022-07-17T08:15:02;98762.02;;;29.10;26.78
47592;BME280;33317;33.356;-117.184;2022-07-17T08:17:31;98763.54;;;29.34;26.69
47592;BME280;33317;33.356;-117.184;2022-07-17T08:19:59;98761.19;;;29.14;26.69
47592;BME280;33317;33.356;-117.184;2022-07-17T08:22:28;98759.84;;;29.33;26.72
47592;BME280;33317;33.356;-117.184;2022-07-17T08:24:56;98756.07;;;29.11;26.84
47592;BME280;33317;33.356;-117.184;2022-07-17T08:27:25;98752.15;;;29.06;26.71
47592;BME280;33317;33.356;-117.184;2022-07-17T08:29:53;98746.94;;;29.04;26.76
47592;BME280;33317;33.356;-117.184;2022-07-17T08:32:21;98742.41;;;29.48;26.81
47592;BME280;33317;33.356;-117.184;2022-07-17T08:34:50;98738.45;;;29.01;26.90
47592;BME280;33317;33.356;-117.184;2022-07-17T08:37:18;98737.67;;;28.98;26.92
47592;BME280;33317;33.356;-117.184;2022-07-17T08:39:46;98735.39;;;28.96;27.00
47592;BME280;33317;33.356;-117.184;2022-07-17T08:42:14;98734.00;;;28.96;27.08
47592;BME280;33317;33.356;-117.184;2022-07-17T08:44:44;98733.84;;;28.96;27.03
47592;BME280;33317;33.356;-117.184;2022-07-17T08:47:14;98734.40;;;29.39;27.01
47592;BME280;33317;33.356;-117.184;2022-07-17T08:49:44;98734.01;;;29.39;27.00
47592;BME280;33317;33.356;-117.184;2022-07-17T08:52:14;98730.26;;;28.98;27.10
47592;BME280;33317;33.356;-117.184;2022-07-17T08:54:42;98726.97;;;28.96;27.10
47592;BME280;33317;33.356;-117.184;2022-07-17T08:57:10;98722.50;;;29.18;27.10
47592;BME280;33317;33.356;-117.184;2022-07-17T08:59:39;98712.45;;;28.93;27.12
47592;BME280;33317;33.356;-117.184;2022-07-17T09:02:07;98709.75;;;28.93;26.96
47592;BME280;33317;33.356;-117.184;2022-07-17T09:04:36;98709.64;;;29.16;27.08
47592;BME280;33317;33.356;-117.184;2022-07-17T09:07:05;98712.94;;;28.92;27.10
47592;BME280;33317;33.356;-117.184;2022-07-17T09:09:34;98718.46;;;28.91;27.12
47592;BME280;33317;33.356;-117.184;2022-07-17T09:12:03;98724.85;;;28.90;27.15
47592;BME280;33317;33.356;-117.184;2022-07-17T09:14:39;98731.72;;;28.88;27.24
47592;BME280;33317;33.356;-117.184;2022-07-17T09:17:08;98738.73;;;28.81;27.34
47592;BME280;33317;33.356;-117.184;2022-07-17T09:19:40;98737.24;;;28.76;27.32
47592;BME280;33317;33.356;-117.184;2022-07-17T09:22:10;98741.28;;;28.71;27.43
47592;BME280;33317;33.356;-117.184;2022-07-17T09:24:44;98739.35;;;28.93;27.35
47592;BME280;33317;33.356;-117.184;2022-07-17T09:27:14;98733.54;;;29.09;27.58
47592;BME280;33317;33.356;-117.184;2022-07-17T09:30:01;98727.93;;;28.88;27.58
47592;BME280;33317;33.356;-117.184;2022-07-17T09:32:32;98723.97;;;28.70;27.43
47592;BME280;33317;33.356;-117.184;2022-07-17T09:35:04;98721.90;;;28.73;27.42
47592;BME280;33317;33.356;-117.184;2022-07-17T09:37:34;98723.29;;;28.93;27.34
47592;BME280;33317;33.356;-117.184;2022-07-17T09:40:09;98723.66;;;28.68;27.38
47592;BME280;33317;33.356;-117.184;2022-07-17T09:42:37;98723.74;;;29.11;27.42
47592;BME280;33317;33.356;-117.184;2022-07-17T09:45:08;98724.97;;;28.84;27.45
47592;BME280;33317;33.356;-117.184;2022-07-17T09:47:38;98727.25;;;28.84;27.60
47592;BME280;33317;33.356;-117.184;2022-07-17T09:50:07;98734.07;;;28.82;27.62
47592;BME280;33317;33.356;-117.184;2022-07-17T09:52:37;98744.79;;;28.78;27.60
47592;BME280;33317;33.356;-117.184;2022-07-17T09:55:06;98756.36;;;28.76;27.71
47592;BME280;33317;33.356;-117.184;2022-07-17T09:57:35;98765.70;;;28.79;27.69
47592;BME280;33317;33.356;-117.184;2022-07-17T10:00:10;98770.20;;;28.77;27.60
47592;BME280;33317;33.356;-117.184;2022-07-17T10:02:40;98769.46;;;28.94;27.83
47592;BME280;33317;33.356;-117.184;2022-07-17T10:05:11;98770.38;;;28.51;27.78
47592;BME280;33317;33.356;-117.184;2022-07-17T10:07:39;98780.99;;;28.68;27.95
47592;BME280;33317;33.356;-117.184;2022-07-17T10:10:09;98788.25;;;28.42;27.89
47592;BME280;33317;33.356;-117.184;2022-07-17T10:12:39;98789.61;;;28.62;28.01
47592;BME280;33317;33.356;-117.184;2022-07-17T10:15:08;98792.69;;;28.36;28.20
47592;BME280;33317;33.356;-117.184;2022-07-17T10:17:37;98798.46;;;28.67;28.23
47592;BME280;33317;33.356;-117.184;2022-07-17T10:20:07;98805.47;;;28.28;28.18
47592;BME280;33317;33.356;-117.184;2022-07-17T10:22:44;98804.90;;;28.57;28.06
47592;BME280;33317;33.356;-117.184;2022-07-17T10:25:14;98801.92;;;28.78;27.91
47592;BME280;33317;33.356;-117.184;2022-07-17T10:27:48;98805.05;;;28.80;27.90
47592;BME280;33317;33.356;-117.184;2022-07-17T10:30:23;98809.69;;;28.80;28.00
47592;BME280;33317;33.356;-117.184;2022-07-17T10:32:53;98805.15;;;28.56;27.98
47592;BME280;33317;33.356;-117.184;2022-07-17T10:35:22;98804.23;;;28.78;27.88
47592;BME280;33317;33.356;-117.184;2022-07-17T10:37:51;98801.60;;;28.76;28.04
47592;BME280;33317;33.356;-117.184;2022-07-17T10:40:21;98800.71;;;28.76;28.05
47592;BME280;33317;33.356;-117.184;2022-07-17T10:42:55;98796.83;;;28.54;28.07
47592;BME280;33317;33.356;-117.184;2022-07-17T10:45:27;98790.32;;;28.76;28.11
47592;BME280;33317;33.356;-117.184;2022-07-17T10:47:57;98787.37;;;28.72;28.20
47592;BME280;33317;33.356;-117.184;2022-07-17T10:50:29;98793.57;;;28.49;28.21
47592;BME280;33317;33.356;-117.184;2022-07-17T10:53:07;98791.00;;;28.44;28.22
47592;BME280;33317;33.356;-117.184;2022-07-17T10:55:38;98784.99;;;28.45;28.12
47592;BME280;33317;33.356;-117.184;2022-07-17T10:58:16;98776.61;;;28.66;28.23
47592;BME280;33317;33.356;-117.184;2022-07-17T11:00:56;98770.81;;;28.62;28.24
47592;BME280;33317;33.356;-117.184;2022-07-17T11:03:25;98773.58;;;28.59;28.39
47592;BME280;33317;33.356;-117.184;2022-07-17T11:05:54;98771.85;;;28.40;28.24
47592;BME280;33317;33.356;-117.184;2022-07-17T11:08:22;98775.36;;;28.67;28.44
47592;BME280;33317;33.356;-117.184;2022-07-17T11:10:51;98771.21;;;28.49;28.30
47592;BME280;33317;33.356;-117.184;2022-07-17T11:13:20;98766.21;;;28.74;28.19
47592;BME280;33317;33.356;-117.184;2022-07-17T11:15:49;98763.39;;;28.33;28.07
47592;BME280;33317;33.356;-117.184;2022-07-17T11:18:20;98756.94;;;28.34;28.12
47592;BME280;33317;33.356;-117.184;2022-07-17T11:20:50;98749.34;;;28.77;28.09
47592;BME280;33317;33.356;-117.184;2022-07-17T11:23:19;98745.58;;;28.75;28.07
47592;BME280;33317;33.356;-117.184;2022-07-17T11:26:04;98745.08;;;28.78;28.09
47592;BME280;33317;33.356;-117.184;2022-07-17T11:28:35;98751.03;;;28.80;28.16
47592;BME280;33317;33.356;-117.184;2022-07-17T11:31:17;98750.97;;;28.77;28.10
47592;BME280;33317;33.356;-117.184;2022-07-17T11:33:51;98749.67;;;28.53;28.10
47592;BME280;33317;33.356;-117.184;2022-07-17T11:36:23;98759.07;;;28.48;28.24
47592;BME280;33317;33.356;-117.184;2022-07-17T11:38:53;98766.22;;;28.46;28.25
47592;BME280;33317;33.356;-117.184;2022-07-17T11:41:23;98766.49;;;28.24;28.46
47592;BME280;33317;33.356;-117.184;2022-07-17T11:43:57;98760.79;;;28.67;28.44
47592;BME280;33317;33.356;-117.184;2022-07-17T11:46:28;98756.94;;;28.65;28.43
47592;BME280;33317;33.356;-117.184;2022-07-17T11:48:57;98750.94;;;28.62;28.50
47592;BME280;33317;33.356;-117.184;2022-07-17T11:51:35;98747.28;;;28.61;28.39
47592;BME280;33317;33.356;-117.184;2022-07-17T11:54:05;98745.69;;;28.40;28.41
47592;BME280;33317;33.356;-117.184;2022-07-17T11:56:34;98748.65;;;28.40;28.41
47592;BME280;33317;33.356;-117.184;2022-07-17T11:59:03;98739.86;;;28.40;28.51
47592;BME280;33317;33.356;-117.184;2022-07-17T12:01:39;98731.61;;;28.73;28.53
47592;BME280;33317;33.356;-117.184;2022-07-17T12:04:09;98736.10;;;28.57;28.30
47592;BME280;33317;33.356;-117.184;2022-07-17T12:06:39;98742.07;;;28.61;28.31
47592;BME280;33317;33.356;-117.184;2022-07-17T12:09:07;98738.19;;;28.48;28.11
47592;BME280;33317;33.356;-117.184;2022-07-17T12:11:46;98736.42;;;28.94;28.01
47592;BME280;33317;33.356;-117.184;2022-07-17T12:14:15;98745.23;;;28.71;28.27
47592;BME280;33317;33.356;-117.184;2022-07-17T12:16:44;98739.36;;;28.70;28.16
47592;BME280;33317;33.356;-117.184;2022-07-17T12:19:14;98736.17;;;28.48;28.15
47592;BME280;33317;33.356;-117.184;2022-07-17T12:21:52;98725.90;;;28.67;28.07
47592;BME280;33317;33.356;-117.184;2022-07-17T12:24:23;98711.14;;;28.84;28.15
47592;BME280;33317;33.356;-117.184;2022-07-17T12:26:52;98698.94;;;28.34;28.40
47592;BME280;33317;33.356;-117.184;2022-07-17T12:29:20;98706.68;;;28.77;28.48
47592;BME280;33317;33.356;-117.184;2022-07-17T12:31:48;98752.79;;;28.52;28.67
47592;BME280;33317;33.356;-117.184;2022-07-17T12:34:28;98745.24;;;28.79;28.33
47592;BME280;33317;33.356;-117.184;2022-07-17T12:36:56;98745.31;;;28.76;28.43
47592;BME280;33317;33.356;-117.184;2022-07-17T12:39:25;98732.22;;;28.77;28.42
47592;BME280;33317;33.356;-117.184;2022-07-17T12:41:53;98727.76;;;28.28;28.33
47592;BME280;33317;33.356;-117.184;2022-07-17T12:44:21;98731.76;;;28.52;28.38